Time;durP1;ratioP1;P1;durP2;ratioP2;P2;SDS_P1;SDS_P2;PMS_P1;PMS_P2;Temp;Humidity;BMP_temperature;BMP_pressure;BME280_temperature;BME280_humidity;BME280_pressure;Samples;Min_cycle;Max_cycle;Signal;HPM_P1;HPM_P2
2022/08/15 00:01:42;;;;;;;4.35;2.63;;;;;;;;;;5029236;28;20037;-67
2022/08/15 00:04:07;;;;;;;2.67;2.20;;;;;;;;;;5029952;28;20546;-66
2022/08/15 00:06:41;;;;;;;4.20;2.38;;;;;;;;;;5029392;28;20038;-67
2022/08/15 00:09:13;;;;;;;3.80;2.17;;;;;;;;;;5026542;28;20038;-67
2022/08/15 00:11:43;;;;;;;3.10;2.33;;;;;;;;;;5028782;28;20044;-67
2022/08/15 00:14:16;;;;;;;3.63;2.33;;;;;;;;;;5029351;28;20045;-66
2022/08/15 00:16:43;;;;;;;2.97;2.60;;;;;;;;;;5027434;28;20037;-67
2022/08/15 00:19:16;;;;;;;5.50;2.22;;;;;;;;;;5029637;28;20457;-66
2022/08/15 00:21:46;;;;;;;3.00;2.10;;;;;;;;;;5019945;28;20049;-67
2022/08/15 00:24:15;;;;;;;4.00;2.35;;;;;;;;;;5024756;28;20103;-66
2022/08/15 00:26:48;;;;;;;2.75;2.10;;;;;;;;;;5028311;28;20473;-67
2022/08/15 00:29:15;;;;;;;8.57;2.20;;;;;;;;;;5028911;28;20041;-67
2022/08/15 00:31:40;;;;;;;3.15;2.20;;;;;;;;;;5028886;28;20124;-66
2022/08/15 00:34:06;;;;;;;3.58;2.00;;;;;;;;;;5029433;28;20124;-66
2022/08/15 00:36:31;;;;;;;3.53;2.17;;;;;;;;;;5028538;28;20482;-67
2022/08/15 00:39:00;;;;;;;3.03;2.22;;;;;;;;;;5027718;28;20033;-67
2022/08/15 00:41:39;;;;;;;2.25;2.03;;;;;;;;;;5019048;28;20037;-67
2022/08/15 00:44:20;;;;;;;4.40;2.58;;;;;;;;;;5028732;28;20040;-66
2022/08/15 00:46:50;;;;;;;3.92;2.33;;;;;;;;;;5037782;28;20037;-66
2022/08/15 00:49:16;;;;;;;4.80;2.00;;;;;;;;;;5023697;28;20092;-66
2022/08/15 00:51:53;;;;;;;2.85;2.13;;;;;;;;;;5029963;28;20045;-66
2022/08/15 00:54:35;;;;;;;4.47;2.15;;;;;;;;;;5028647;28;20488;-67
2022/08/15 00:57:12;;;;;;;3.58;2.00;;;;;;;;;;5009177;28;20038;-67
2022/08/15 00:59:43;;;;;;;3.83;1.98;;;;;;;;;;5028448;28;20042;-66
2022/08/15 01:02:14;;;;;;;2.75;1.85;;;;;;;;;;5008841;28;20557;-67
2022/08/15 01:04:40;;;;;;;4.63;1.90;;;;;;;;;;5008731;28;20116;-67
2022/08/15 01:07:06;;;;;;;5.40;2.10;;;;;;;;;;5028286;28;20092;-67
2022/08/15 01:09:32;;;;;;;3.78;2.10;;;;;;;;;;5027988;28;20030;-66
2022/08/15 01:12:01;;;;;;;4.32;2.38;;;;;;;;;;5027433;28;20048;-67
2022/08/15 01:14:28;;;;;;;2.60;2.10;;;;;;;;;;5028082;28;20079;-67
2022/08/15 01:16:53;;;;;;;3.78;2.15;;;;;;;;;;5027842;28;20411;-66
2022/08/15 01:19:27;;;;;;;4.53;2.28;;;;;;;;;;5028093;28;20472;-66
2022/08/15 01:22:13;;;;;;;3.40;2.10;;;;;;;;;;5026665;28;20535;-67
2022/08/15 01:24:53;;;;;;;3.85;1.80;;;;;;;;;;5023446;28;20109;-67
2022/08/15 01:27:22;;;;;;;5.03;1.90;;;;;;;;;;5027376;28;20033;-67
2022/08/15 01:29:50;;;;;;;4.72;2.28;;;;;;;;;;5007077;28;20116;-67
2022/08/15 01:32:15;;;;;;;3.83;2.03;;;;;;;;;;5018310;28;20041;-67
2022/08/15 01:34:41;;;;;;;4.00;1.95;;;;;;;;;;5027678;28;20068;-67
2022/08/15 01:37:07;;;;;;;3.33;1.90;;;;;;;;;;5028135;28;20104;-66
2022/08/15 01:39:40;;;;;;;3.47;2.33;;;;;;;;;;5028961;28;20025;-67
2022/08/15 01:42:08;;;;;;;;;;;;;;;;;;5027445;28;20068;-67
2022/08/15 01:44:47;;;;;;;4.78;2.63;;;;;;;;;;5027446;28;20495;-66
2022/08/15 01:47:27;;;;;;;2.47;2.28;;;;;;;;;;5036871;28;20049;-67
2022/08/15 01:50:09;;;;;;;3.30;2.25;;;;;;;;;;5028059;28;20136;-67
2022/08/15 01:52:41;;;;;;;3.80;2.22;;;;;;;;;;5029594;28;20021;-66
2022/08/15 01:55:09;;;;;;;4.70;2.13;;;;;;;;;;5022668;28;20141;-67
2022/08/15 01:57:35;;;;;;;5.93;2.40;;;;;;;;;;5007869;28;20060;-67
2022/08/15 02:00:00;;;;;;;5.15;2.10;;;;;;;;;;5007614;28;20053;-66
2022/08/15 02:02:27;;;;;;;5.07;2.33;;;;;;;;;;5007378;28;20062;-66
2022/08/15 02:04:54;;;;;;;3.47;1.90;;;;;;;;;;5010262;28;20506;-66
2022/08/15 02:07:25;;;;;;;3.42;2.20;;;;;;;;;;5027018;28;20083;-66
2022/08/15 02:09:52;;;;;;;4.55;2.50;;;;;;;;;;5025741;28;20029;-66
2022/08/15 02:12:21;;;;;;;4.88;2.33;;;;;;;;;;5026758;28;20046;-66
2022/08/15 02:14:46;;;;;;;4.03;2.40;;;;;;;;;;5027253;28;20030;-66
2022/08/15 02:17:13;;;;;;;3.83;2.33;;;;;;;;;;5027189;28;20590;-67
2022/08/15 02:19:40;;;;;;;4.13;2.78;;;;;;;;;;5027098;28;20045;-66
2022/08/15 02:22:08;;;;;;;6.05;3.08;;;;;;;;;;5027452;28;20031;-66
2022/08/15 02:24:34;;;;;;;5.28;2.67;;;;;;;;;;5026900;28;20038;-66
2022/08/15 02:26:59;;;;;;;3.63;2.38;;;;;;;;;;5026549;28;20053;-67
2022/08/15 02:29:27;;;;;;;5.30;2.90;;;;;;;;;;5026880;28;20068;-66
2022/08/15 02:31:59;;;;;;;3.60;2.75;;;;;;;;;;5026522;28;20038;-66
2022/08/15 02:34:25;;;;;;;5.63;2.90;;;;;;;;;;5027393;28;20055;-66
2022/08/15 02:36:50;;;;;;;5.25;2.75;;;;;;;;;;5027191;28;20406;-67
2022/08/15 02:39:16;;;;;;;5.63;2.60;;;;;;;;;;5026635;28;20511;-66
2022/08/15 02:41:50;;;;;;;7.63;3.40;;;;;;;;;;5022688;28;20133;-67
2022/08/15 02:44:17;;;;;;;7.35;2.92;;;;;;;;;;5026580;28;20037;-67
2022/08/15 02:46:43;;;;;;;5.40;2.95;;;;;;;;;;5013332;28;20042;-67
2022/08/15 02:49:12;;;;;;;4.18;3.00;;;;;;;;;;5023005;28;20030;-67
2022/08/15 02:51:41;;;;;;;4.65;3.38;;;;;;;;;;5011737;28;20060;-67
2022/08/15 02:54:09;;;;;;;6.32;3.33;;;;;;;;;;5010946;28;20092;-67
2022/08/15 02:56:35;;;;;;;5.35;2.92;;;;;;;;;;5023187;28;20148;-67
2022/08/15 02:59:02;;;;;;;5.40;3.25;;;;;;;;;;5012343;28;20117;-67
2022/08/15 03:01:28;;;;;;;4.78;2.90;;;;;;;;;;5015277;28;20086;-67
2022/08/15 03:03:55;;;;;;;6.85;2.92;;;;;;;;;;5023284;28;20109;-67
2022/08/15 03:06:30;;;;;;;5.07;3.20;;;;;;;;;;5030842;28;20423;-67
2022/08/15 03:09:00;;;;;;;5.35;3.10;;;;;;;;;;5030916;28;20120;-67
2022/08/15 03:11:25;;;;;;;5.75;3.22;;;;;;;;;;5031365;28;20041;-66
2022/08/15 03:13:51;;;;;;;4.70;3.42;;;;;;;;;;5031018;28;20049;-67
2022/08/15 03:16:16;;;;;;;4.78;3.10;;;;;;;;;;5031468;28;20028;-67
2022/08/15 03:18:42;;;;;;;3.95;2.90;;;;;;;;;;5031255;28;20032;-66
2022/08/15 03:21:12;;;;;;;7.75;3.60;;;;;;;;;;5018897;28;20052;-66
2022/08/15 03:23:38;;;;;;;4.38;3.22;;;;;;;;;;5031276;28;20045;-67
2022/08/15 03:26:04;;;;;;;5.32;3.30;;;;;;;;;;5031173;28;20029;-67
2022/08/15 03:28:31;;;;;;;7.50;3.80;;;;;;;;;;5031051;28;20021;-66
2022/08/15 03:31:04;;;;;;;4.88;3.20;;;;;;;;;;5031825;28;20029;-67
2022/08/15 03:33:32;;;;;;;3.95;2.85;;;;;;;;;;5031225;28;20435;-67
2022/08/15 03:35:58;;;;;;;5.20;3.20;;;;;;;;;;5030997;28;20037;-67
2022/08/15 03:38:24;;;;;;;6.38;3.45;;;;;;;;;;5030419;28;20175;-67
2022/08/15 03:40:50;;;;;;;4.30;3.17;;;;;;;;;;5031032;28;20108;-66
2022/08/15 03:43:27;;;;;;;4.88;3.15;;;;;;;;;;5031303;28;20029;-67
2022/08/15 03:46:06;;;;;;;7.03;3.38;;;;;;;;;;5030740;28;20048;-67
2022/08/15 03:48:44;;;;;;;8.35;3.03;;;;;;;;;;5023615;28;20518;-66
2022/08/15 03:51:11;;;;;;;5.82;3.40;;;;;;;;;;5030667;28;20071;-67
2022/08/15 03:53:43;;;;;;;6.65;3.55;;;;;;;;;;5030668;28;20044;-66
2022/08/15 03:56:08;;;;;;;6.70;3.42;;;;;;;;;;5030044;28;20045;-67
2022/08/15 03:58:34;;;;;;;6.00;3.42;;;;;;;;;;5030772;28;20116;-66
2022/08/15 04:01:00;;;;;;;5.95;3.38;;;;;;;;;;5021122;28;20021;-67
2022/08/15 04:03:29;;;;;;;5.93;3.58;;;;;;;;;;5010318;28;20049;-67
2022/08/15 04:05:59;;;;;;;4.72;3.20;;;;;;;;;;5026797;28;20515;-67
2022/08/15 04:08:30;;;;;;;9.20;3.92;;;;;;;;;;5031873;28;20044;-67
2022/08/15 04:10:56;;;;;;;5.70;3.42;;;;;;;;;;5037839;28;20455;-67
2022/08/15 04:13:24;;;;;;;6.18;3.45;;;;;;;;;;5048939;28;20108;-67
2022/08/15 04:15:54;;;;;;;5.72;3.72;;;;;;;;;;5050596;28;20109;-67
2022/08/15 04:18:20;;;;;;;6.15;3.40;;;;;;;;;;5036154;28;20499;-67
2022/08/15 04:20:46;;;;;;;6.13;3.60;;;;;;;;;;5030233;28;20025;-66
2022/08/15 04:23:11;;;;;;;5.60;3.72;;;;;;;;;;5029605;28;20033;-67
2022/08/15 04:25:40;;;;;;;6.22;3.20;;;;;;;;;;5028436;28;20046;-67
2022/08/15 04:28:07;;;;;;;8.13;3.70;;;;;;;;;;5013713;28;20018;-67
2022/08/15 04:30:36;;;;;;;7.80;3.05;;;;;;;;;;5010094;28;20081;-66
2022/08/15 04:33:11;;;;;;;6.57;3.78;;;;;;;;;;5014459;28;20037;-67
2022/08/15 04:35:40;;;;;;;6.00;3.58;;;;;;;;;;5029850;28;20037;-66
2022/08/15 04:38:06;;;;;;;6.78;3.53;;;;;;;;;;5029327;28;20525;-66
2022/08/15 04:40:32;;;;;;;7.10;3.78;;;;;;;;;;5030156;28;20025;-67
2022/08/15 04:42:58;;;;;;;5.65;3.60;;;;;;;;;;5030199;28;20056;-67
2022/08/15 04:45:25;;;;;;;7.55;3.78;;;;;;;;;;5032330;28;20056;-67
2022/08/15 04:47:51;;;;;;;7.90;4.20;;;;;;;;;;5037907;28;20442;-66
2022/08/15 04:50:17;;;;;;;6.75;3.63;;;;;;;;;;5029938;28;20511;-67
2022/08/15 04:52:48;;;;;;;6.25;3.63;;;;;;;;;;5029537;28;20033;-67
2022/08/15 04:55:14;;;;;;;6.15;3.55;;;;;;;;;;5028234;28;20045;-67
2022/08/15 04:57:40;;;;;;;5.97;3.53;;;;;;;;;;5029592;28;20033;-67
2022/08/15 05:00:11;;;;;;;7.03;3.67;;;;;;;;;;5040559;28;20033;-67
2022/08/15 05:02:37;;;;;;;7.90;3.53;;;;;;;;;;5029330;28;20510;-67
2022/08/15 05:05:05;;;;;;;8.27;3.70;;;;;;;;;;5029497;28;20133;-67
2022/08/15 05:07:31;;;;;;;6.15;3.92;;;;;;;;;;5028778;28;20025;-67
2022/08/15 05:09:58;;;;;;;7.10;3.75;;;;;;;;;;5029752;28;20075;-67
2022/08/15 05:12:24;;;;;;;8.35;4.13;;;;;;;;;;5028742;28;20038;-67
2022/08/15 05:14:49;;;;;;;8.45;3.88;;;;;;;;;;5028725;28;20038;-67
2022/08/15 05:17:15;;;;;;;7.65;3.50;;;;;;;;;;5029348;28;20041;-66
2022/08/15 05:19:40;;;;;;;8.32;3.85;;;;;;;;;;5030176;28;20030;-67
2022/08/15 05:22:06;;;;;;;6.20;3.90;;;;;;;;;;5029036;28;20025;-67
2022/08/15 05:24:32;;;;;;;7.40;3.88;;;;;;;;;;5008605;28;20610;-67
2022/08/15 05:26:57;;;;;;;9.63;4.00;;;;;;;;;;5020491;28;20140;-67
2022/08/15 05:29:22;;;;;;;6.13;3.55;;;;;;;;;;5012749;28;20088;-67
2022/08/15 05:31:48;;;;;;;8.43;4.15;;;;;;;;;;5028671;28;20025;-67
2022/08/15 05:34:13;;;;;;;7.55;4.00;;;;;;;;;;5028836;28;20507;-67
2022/08/15 05:36:38;;;;;;;5.63;3.60;;;;;;;;;;5027615;28;20132;-67
2022/08/15 05:39:23;;;;;;;7.57;4.10;;;;;;;;;;5019604;28;20080;-67
2022/08/15 05:42:05;;;;;;;7.70;4.43;;;;;;;;;;5015179;28;20037;-67
2022/08/15 05:44:47;;;;;;;7.78;4.18;;;;;;;;;;5028357;28;20120;-67
2022/08/15 05:47:19;;;;;;;6.28;4.10;;;;;;;;;;5028482;28;20041;-66
2022/08/15 05:49:50;;;;;;;9.63;4.80;;;;;;;;;;5028487;28;20045;-67
2022/08/15 05:52:28;;;;;;;10.60;4.15;;;;;;;;;;5028643;28;20026;-67
2022/08/15 05:54:56;;;;;;;6.82;4.22;;;;;;;;;;5028134;28;20430;-67
2022/08/15 05:57:40;;;;;;;8.52;4.25;;;;;;;;;;5028300;28;20052;-67
2022/08/15 06:00:10;;;;;;;7.50;4.10;;;;;;;;;;5022527;28;20025;-68
2022/08/15 06:02:46;;;;;;;9.18;4.57;;;;;;;;;;5027693;28;20476;-67
2022/08/15 06:05:29;;;;;;;5.32;3.63;;;;;;;;;;5027359;28;20041;-67
2022/08/15 06:07:58;;;;;;;5.75;4.25;;;;;;;;;;5028911;28;20862;-67
2022/08/15 06:10:25;;;;;;;6.88;3.80;;;;;;;;;;5027597;28;20116;-67
2022/08/15 06:12:59;;;;;;;6.65;4.18;;;;;;;;;;5028574;28;20029;-67
2022/08/15 06:15:26;;;;;;;;;;;;;;;;;;5028476;28;20514;-67
2022/08/15 06:17:58;;;;;;;7.53;3.75;;;;;;;;;;5029975;28;19924;-67
2022/08/15 06:20:40;;;;;;;9.27;4.55;;;;;;;;;;5024916;28;20055;-67
2022/08/15 06:23:27;;;;;;;5.53;3.55;;;;;;;;;;5027513;28;20025;-67
2022/08/15 06:26:17;;;;;;;7.47;4.07;;;;;;;;;;5026572;28;20592;-68
2022/08/15 06:29:01;;;;;;;6.53;4.13;;;;;;;;;;5030732;28;20033;-67
2022/08/15 06:31:37;;;;;;;8.40;4.35;;;;;;;;;;5010271;28;20035;-67
2022/08/15 06:34:11;;;;;;;5.88;4.07;;;;;;;;;;5020707;28;20029;-67
2022/08/15 06:36:52;;;;;;;6.47;3.45;;;;;;;;;;5026558;28;20726;-67
2022/08/15 06:39:33;;;;;;;7.05;4.32;;;;;;;;;;5026927;28;20026;-67
2022/08/15 06:42:07;;;;;;;8.52;4.05;;;;;;;;;;5028913;28;20133;-67
2022/08/15 06:44:33;;;;;;;6.55;4.13;;;;;;;;;;5022428;28;20034;-67
2022/08/15 06:47:04;;;;;;;5.78;3.65;;;;;;;;;;5035684;28;20037;-67
2022/08/15 06:49:36;;;;;;;6.85;4.05;;;;;;;;;;5026647;28;20025;-67
2022/08/15 06:52:02;;;;;;;6.15;4.00;;;;;;;;;;5030319;28;20025;-67
2022/08/15 06:54:29;;;;;;;6.20;3.58;;;;;;;;;;5023191;28;20119;-67
2022/08/15 06:57:04;;;;;;;6.82;3.92;;;;;;;;;;5027809;28;20034;-67
2022/08/15 06:59:47;;;;;;;5.32;3.53;;;;;;;;;;5027370;28;20033;-67
2022/08/15 07:02:34;;;;;;;7.88;3.70;;;;;;;;;;5007449;28;20030;-67
2022/08/15 07:05:14;;;;;;;5.93;3.67;;;;;;;;;;5007896;28;20048;-67
2022/08/15 07:08:01;;;;;;;5.93;3.50;;;;;;;;;;5018132;28;20590;-67
2022/08/15 07:10:29;;;;;;;4.70;3.35;;;;;;;;;;5027202;28;20030;-67
2022/08/15 07:13:13;;;;;;;7.75;3.40;;;;;;;;;;5021422;28;20028;-67
2022/08/15 07:15:50;;;;;;;8.80;4.00;;;;;;;;;;5019984;28;20156;-67
2022/08/15 07:18:30;;;;;;;6.35;3.40;;;;;;;;;;5022713;28;20064;-67
2022/08/15 07:21:07;;;;;;;5.70;3.22;;;;;;;;;;5030324;28;20045;-67
2022/08/15 07:23:35;;;;;;;8.68;3.88;;;;;;;;;;5026953;28;20041;-67
2022/08/15 07:26:11;;;;;;;8.20;3.22;;;;;;;;;;5026241;28;20058;-67
2022/08/15 07:28:43;;;;;;;5.63;3.42;;;;;;;;;;5012067;28;20060;-67
2022/08/15 07:31:15;;;;;;;7.60;3.88;;;;;;;;;;5024319;28;20514;-67
2022/08/15 07:33:46;;;;;;;4.40;3.47;;;;;;;;;;5030196;28;20545;-67
2022/08/15 07:36:28;;;;;;;5.82;3.33;;;;;;;;;;5026102;28;20041;-66
2022/08/15 07:38:54;;;;;;;5.57;3.47;;;;;;;;;;5022474;28;20049;-67
2022/08/15 07:41:27;;;;;;;7.20;3.85;;;;;;;;;;5022273;28;20032;-67
2022/08/15 07:44:18;;;;;;;6.00;3.67;;;;;;;;;;5022847;28;20057;-68
2022/08/15 07:47:11;;;;;;;6.93;3.60;;;;;;;;;;5023211;28;20095;-67
2022/08/15 07:49:37;;;;;;;6.68;3.83;;;;;;;;;;5020101;28;20041;-67
2022/08/15 07:52:05;;;;;;;7.32;3.53;;;;;;;;;;5028891;28;20063;-67
2022/08/15 07:54:31;;;;;;;5.47;3.67;;;;;;;;;;5024307;28;20045;-67
2022/08/15 07:57:00;;;;;;;7.53;3.45;;;;;;;;;;5024419;28;20045;-67
2022/08/15 07:59:33;;;;;;;6.03;3.63;;;;;;;;;;5023410;28;20030;-67
2022/08/15 08:02:11;;;;;;;;;;;;;;;;;;5019813;28;20038;-67
2022/08/15 08:04:36;;;;;;;7.10;3.83;;;;;;;;;;5019206;28;19967;-67
2022/08/15 08:07:10;;;;;;;4.93;3.10;;;;;;;;;;5024208;28;20029;-67
2022/08/15 08:09:43;;;;;;;8.02;3.88;;;;;;;;;;5020092;28;20041;-67
2022/08/15 08:12:25;;;;;;;5.22;3.55;;;;;;;;;;5028526;28;20763;-67
2022/08/15 08:15:14;;;;;;;4.43;3.20;;;;;;;;;;5020614;28;20494;-67
2022/08/15 08:17:46;;;;;;;6.57;4.45;;;;;;;;;;5023209;28;20056;-67
2022/08/15 08:20:23;;;;;;;5.72;4.00;;;;;;;;;;5017213;28;20115;-67
2022/08/15 08:22:53;;;;;;;9.18;3.90;;;;;;;;;;5023192;28;20042;-67
2022/08/15 08:25:43;;;;;;;5.10;3.63;;;;;;;;;;5027541;28;20491;-67
2022/08/15 08:28:29;;;;;;;8.25;4.03;;;;;;;;;;5023365;28;20450;-67
2022/08/15 08:30:55;;;;;;;6.55;3.63;;;;;;;;;;5028817;28;20049;-67
2022/08/15 08:33:39;;;;;;;6.00;3.60;;;;;;;;;;5029436;28;20458;-67
2022/08/15 08:36:20;;;;;;;7.05;3.60;;;;;;;;;;5023606;28;20092;-67
2022/08/15 08:38:58;;;;;;;9.65;4.57;;;;;;;;;;5025890;28;20125;-67
2022/08/15 08:41:42;;;;;;;8.10;4.03;;;;;;;;;;5023794;28;20493;-67
2022/08/15 08:44:27;;;;;;;5.38;3.50;;;;;;;;;;5025929;28;20450;-67
2022/08/15 08:47:11;;;;;;;6.05;4.15;;;;;;;;;;5040606;28;20025;-67
2022/08/15 08:49:41;;;;;;;6.07;4.32;;;;;;;;;;5021104;28;20030;-68
2022/08/15 08:52:16;;;;;;;6.40;3.70;;;;;;;;;;5020816;28;20121;-67
2022/08/15 08:55:04;;;;;;;6.32;3.78;;;;;;;;;;5017031;28;20066;-66
2022/08/15 08:57:36;;;;;;;5.15;4.00;;;;;;;;;;5013575;28;20065;-67
2022/08/15 09:00:16;;;;;;;6.18;3.72;;;;;;;;;;5011096;28;20042;-67
2022/08/15 09:02:47;;;;;;;7.18;4.10;;;;;;;;;;5013657;28;20046;-67
2022/08/15 09:05:22;;;;;;;8.18;4.80;;;;;;;;;;5017786;28;20121;-67
2022/08/15 09:07:54;;;;;;;8.13;5.07;;;;;;;;;;5027975;28;20187;-67
2022/08/15 09:10:29;;;;;;;6.50;4.63;;;;;;;;;;5026528;28;20057;-67
2022/08/15 09:15:42;;;;;;;7.88;4.50;;;;;;;;;;5027229;28;20107;-67
2022/08/15 09:18:14;;;;;;;18.50;13.63;;;;;;;;;;5026434;28;20037;-66
2022/08/15 09:20:41;;;;;;;12.95;5.20;;;;;;;;;;5012614;28;20771;-66
2022/08/15 09:23:10;;;;;;;9.23;4.78;;;;;;;;;;5027739;28;20495;-66
2022/08/15 09:25:58;;;;;;;8.85;4.60;;;;;;;;;;5027492;28;20025;-66
2022/08/15 09:28:31;;;;;;;8.18;4.85;;;;;;;;;;5026432;28;20057;-66
2022/08/15 09:31:02;;;;;;;7.43;4.65;;;;;;;;;;5029280;28;20025;-66
2022/08/15 09:33:36;;;;;;;6.82;4.85;;;;;;;;;;5017848;28;20061;-66
2022/08/15 09:36:23;;;;;;;8.48;4.80;;;;;;;;;;5029153;28;20041;-66
2022/08/15 09:39:13;;;;;;;7.15;4.57;;;;;;;;;;5034487;28;20442;-67
2022/08/15 09:41:42;;;;;;;7.60;4.90;;;;;;;;;;5019111;28;20649;-66
2022/08/15 09:44:20;;;;;;;6.70;4.90;;;;;;;;;;5012995;28;20044;-66
2022/08/15 09:47:08;;;;;;;8.85;5.10;;;;;;;;;;5038400;28;20037;-67
2022/08/15 09:49:44;;;;;;;6.78;4.85;;;;;;;;;;5026669;28;20032;-66
2022/08/15 09:52:38;;;;;;;7.28;5.00;;;;;;;;;;5026942;28;20028;-66
2022/08/15 09:55:27;;;;;;;7.72;5.10;;;;;;;;;;5024532;28;20056;-66
2022/08/15 09:57:55;;;;;;;7.43;4.88;;;;;;;;;;5020459;28;20049;-67
2022/08/15 10:01:03;;;;;;;6.82;4.47;;;;;;;;;;5024676;28;20080;-67
2022/08/15 10:03:43;;;;;;;6.85;4.72;;;;;;;;;;4997891;28;20546;-66
2022/08/15 10:06:31;;;;;;;8.05;4.82;;;;;;;;;;5007489;28;20084;-66
2022/08/15 10:09:01;;;;;;;7.28;4.75;;;;;;;;;;5010227;28;20044;-67
2022/08/15 10:12:06;;;;;;;11.43;5.40;;;;;;;;;;5024637;28;20753;-66
2022/08/15 10:14:40;;;;;;;11.35;5.20;;;;;;;;;;5025883;28;20052;-67
2022/08/15 10:17:27;;;;;;;7.00;5.00;;;;;;;;;;5026703;28;20038;-67
2022/08/15 10:19:54;;;;;;;6.38;4.72;;;;;;;;;;5026584;28;20045;-67
2022/08/15 10:22:22;;;;;;;9.65;4.90;;;;;;;;;;5027257;28;20029;-67
2022/08/15 10:25:22;;;;;;;6.22;4.35;;;;;;;;;;5017648;28;20026;-67
2022/08/15 10:28:10;;;;;;;8.13;4.43;;;;;;;;;;5017551;28;20046;-67
2022/08/15 10:30:48;;;;;;;5.75;4.72;;;;;;;;;;5005714;28;20587;-67
2022/08/15 10:33:32;;;;;;;6.93;4.75;;;;;;;;;;5016381;28;20041;-67
2022/08/15 10:36:13;;;;;;;6.90;4.88;;;;;;;;;;5020951;28;20110;-66
2022/08/15 10:38:52;;;;;;;6.70;5.10;;;;;;;;;;5025964;28;20083;-67
2022/08/15 10:41:31;;;;;;;9.60;5.05;;;;;;;;;;5026109;28;20044;-67
2022/08/15 10:44:11;;;;;;;5.95;4.80;;;;;;;;;;5026166;28;20040;-66
2022/08/15 10:46:49;;;;;;;7.63;4.93;;;;;;;;;;5021773;28;20048;-66
2022/08/15 10:49:38;;;;;;;8.73;5.32;;;;;;;;;;5018285;28;20477;-66
2022/08/15 10:52:37;;;;;;;6.75;5.38;;;;;;;;;;5020121;28;20128;-66
2022/08/15 10:55:05;;;;;;;7.97;5.63;;;;;;;;;;5016865;28;20061;-71
2022/08/15 10:57:39;;;;;;;10.02;5.55;;;;;;;;;;5025912;28;20046;-67
2022/08/15 11:00:07;;;;;;;8.57;5.22;;;;;;;;;;5015585;28;20129;-68
2022/08/15 11:02:50;;;;;;;6.50;5.38;;;;;;;;;;5011780;28;20037;-68
2022/08/15 11:05:20;;;;;;;7.28;5.25;;;;;;;;;;5025959;28;20034;-70
2022/08/15 11:07:49;;;;;;;7.82;4.93;;;;;;;;;;5024662;28;20130;-66
2022/08/15 11:10:17;;;;;;;10.88;5.45;;;;;;;;;;5025015;28;20095;-67
2022/08/15 11:12:55;;;;;;;12.45;5.60;;;;;;;;;;5027163;28;20095;-66
2022/08/15 11:15:28;;;;;;;6.80;5.07;;;;;;;;;;5025394;28;20096;-66
2022/08/15 11:18:08;;;;;;;7.72;5.20;;;;;;;;;;5023085;28;20463;-66
2022/08/15 11:20:43;;;;;;;11.23;5.55;;;;;;;;;;5025776;28;20095;-67
2022/08/15 11:23:09;;;;;;;8.98;5.70;;;;;;;;;;5027158;28;20042;-68
2022/08/15 11:25:39;;;;;;;10.63;5.57;;;;;;;;;;5025538;28;20018;-67
2022/08/15 11:28:06;;;;;;;6.15;4.95;;;;;;;;;;5022494;28;20040;-68
2022/08/15 11:30:35;;;;;;;6.43;4.90;;;;;;;;;;5024732;28;20091;-68
2022/08/15 11:33:19;;;;;;;10.35;5.40;;;;;;;;;;5025976;28;20038;-68
2022/08/15 11:35:45;;;;;;;8.25;5.45;;;;;;;;;;5015754;28;20471;-67
2022/08/15 11:38:12;;;;;;;6.35;5.03;;;;;;;;;;5018388;28;20053;-68
2022/08/15 11:40:41;;;;;;;9.10;5.57;;;;;;;;;;5018825;28;20405;-68
2022/08/15 11:43:14;;;;;;;7.28;5.18;;;;;;;;;;5017219;28;20030;-67
2022/08/15 11:45:45;;;;;;;8.02;5.60;;;;;;;;;;5025410;28;20045;-67
2022/08/15 11:48:18;;;;;;;8.95;5.57;;;;;;;;;;5013007;28;20029;-67
2022/08/15 11:50:57;;;;;;;8.52;5.28;;;;;;;;;;5022455;28;20473;-68
2022/08/15 11:53:29;;;;;;;6.97;4.97;;;;;;;;;;5020465;28;20714;-68
2022/08/15 11:55:54;;;;;;;7.55;5.30;;;;;;;;;;5017597;28;20041;-68
2022/08/15 11:58:29;;;;;;;7.10;4.68;;;;;;;;;;5020473;28;20114;-67
2022/08/15 12:00:57;;;;;;;10.32;5.68;;;;;;;;;;5025836;28;20052;-68
2022/08/15 12:03:28;;;;;;;9.70;4.93;;;;;;;;;;5017307;28;20053;-68
2022/08/15 12:06:16;;;;;;;5.50;4.55;;;;;;;;;;5027413;28;20058;-67
2022/08/15 12:08:44;;;;;;;9.70;5.03;;;;;;;;;;5014845;28;20431;-67
2022/08/15 12:11:12;;;;;;;7.50;4.65;;;;;;;;;;5007453;28;20459;-67
2022/08/15 12:13:38;;;;;;;8.73;4.68;;;;;;;;;;5008441;28;20117;-67
2022/08/15 12:16:04;;;;;;;4.97;4.10;;;;;;;;;;5012831;28;20226;-67
2022/08/15 12:18:33;;;;;;;5.70;4.15;;;;;;;;;;5018370;28;20477;-67
2022/08/15 12:21:03;;;;;;;5.78;4.28;;;;;;;;;;5033224;28;20044;-67
2022/08/15 12:23:33;;;;;;;6.40;4.35;;;;;;;;;;5007524;28;20534;-67
2022/08/15 12:26:01;;;;;;;6.15;4.35;;;;;;;;;;5016815;28;20089;-67
2022/08/15 12:28:29;;;;;;;5.70;4.47;;;;;;;;;;5018119;28;20029;-67
2022/08/15 12:31:28;;;;;;;5.10;4.05;;;;;;;;;;5006369;28;20483;-67
2022/08/15 12:34:13;;;;;;;7.30;4.20;;;;;;;;;;5015145;28;20066;-67
2022/08/15 12:36:42;;;;;;;6.35;4.45;;;;;;;;;;5029654;28;20408;-67
2022/08/15 12:39:10;;;;;;;8.07;4.00;;;;;;;;;;5030229;28;20050;-67
2022/08/15 12:41:41;;;;;;;8.23;4.10;;;;;;;;;;5030201;28;20045;-67
2022/08/15 12:44:17;;;;;;;6.65;3.90;;;;;;;;;;5042408;28;20176;-66
2022/08/15 12:46:43;;;;;;;7.00;3.88;;;;;;;;;;5030483;28;20048;-67
2022/08/15 12:49:11;;;;;;;6.45;4.22;;;;;;;;;;5028479;28;20048;-67
2022/08/15 12:51:36;;;;;;;5.53;3.95;;;;;;;;;;5028191;28;20033;-67
2022/08/15 12:54:02;;;;;;;5.53;4.05;;;;;;;;;;5021294;28;20049;-67
2022/08/15 12:56:29;;;;;;;4.57;3.60;;;;;;;;;;5020469;28;20037;-66
2022/08/15 12:58:55;;;;;;;5.35;3.90;;;;;;;;;;5016237;28;20140;-67
2022/08/15 13:01:20;;;;;;;10.32;3.80;;;;;;;;;;5019409;28;20083;-68
2022/08/15 13:03:48;;;;;;;6.05;3.60;;;;;;;;;;5027543;28;20542;-67
2022/08/15 13:06:25;;;;;;;7.15;4.50;;;;;;;;;;5026633;28;20060;-67
2022/08/15 13:08:51;;;;;;;8.27;4.47;;;;;;;;;;5025634;28;20392;-67
2022/08/15 13:11:17;;;;;;;5.07;3.90;;;;;;;;;;5024079;28;20042;-67
2022/08/15 13:13:43;;;;;;;5.00;4.10;;;;;;;;;;5027136;28;20044;-67
2022/08/15 13:16:11;;;;;;;5.97;3.70;;;;;;;;;;5026689;28;20040;-67
2022/08/15 13:18:37;;;;;;;6.78;4.13;;;;;;;;;;5026625;28;20037;-67
2022/08/15 13:23:51;;;;;;;4.75;3.47;;;;;;;;;;5034419;28;20094;-67
2022/08/15 13:26:20;;;;;;;8.90;3.90;;;;;;;;;;5025243;28;20033;-67
2022/08/15 13:28:47;;;;;;;5.10;3.60;;;;;;;;;;5011796;28;20545;-67
2022/08/15 13:31:14;;;;;;;5.43;3.53;;;;;;;;;;5027314;28;20045;-67
2022/08/15 13:33:40;;;;;;;6.20;3.50;;;;;;;;;;5027178;28;20596;-67
2022/08/15 13:36:10;;;;;;;6.25;3.60;;;;;;;;;;5027092;28;20506;-68
2022/08/15 13:38:41;;;;;;;7.72;3.95;;;;;;;;;;5025165;28;20087;-67
2022/08/15 13:41:11;;;;;;;7.00;3.75;;;;;;;;;;5033528;28;20088;-68
2022/08/15 13:43:39;;;;;;;8.27;4.03;;;;;;;;;;5019183;28;20080;-68
2022/08/15 13:46:05;;;;;;;7.35;3.70;;;;;;;;;;5033965;28;20056;-68
2022/08/15 13:48:35;;;;;;;5.28;3.70;;;;;;;;;;5028799;28;20037;-68
2022/08/15 13:51:01;;;;;;;5.57;3.75;;;;;;;;;;5025895;28;20053;-68
2022/08/15 13:53:27;;;;;;;4.68;3.53;;;;;;;;;;5036143;28;20467;-68
2022/08/15 13:55:52;;;;;;;5.20;3.45;;;;;;;;;;5036358;28;20136;-68
2022/08/15 13:58:18;;;;;;;4.80;3.70;;;;;;;;;;5026698;28;20032;-68
2022/08/15 14:00:44;;;;;;;5.55;3.75;;;;;;;;;;5024475;28;20040;-68
2022/08/15 14:03:10;;;;;;;4.70;3.65;;;;;;;;;;5025667;28;20041;-68
2022/08/15 14:05:36;;;;;;;4.47;3.50;;;;;;;;;;5024235;28;20045;-68
2022/08/15 14:08:02;;;;;;;6.78;3.65;;;;;;;;;;5026096;28;20029;-68
2022/08/15 14:10:28;;;;;;;5.55;3.70;;;;;;;;;;5025753;28;20033;-68
2022/08/15 14:12:53;;;;;;;5.75;3.63;;;;;;;;;;5026761;28;20040;-68
2022/08/15 14:15:19;;;;;;;4.90;3.72;;;;;;;;;;5023128;28;20974;-68
2022/08/15 14:17:46;;;;;;;4.22;3.40;;;;;;;;;;5025107;28;20041;-68
2022/08/15 14:20:15;;;;;;;6.32;3.83;;;;;;;;;;5025084;28;20037;-68
2022/08/15 14:22:40;;;;;;;7.38;4.03;;;;;;;;;;5018934;28;20052;-68
2022/08/15 14:25:07;;;;;;;7.88;4.10;;;;;;;;;;5021737;28;20033;-68
2022/08/15 14:27:33;;;;;;;7.90;3.90;;;;;;;;;;5017962;28;20132;-68
2022/08/15 14:29:59;;;;;;;4.07;3.47;;;;;;;;;;5022586;28;20041;-68
2022/08/15 14:32:25;;;;;;;4.97;3.47;;;;;;;;;;5024418;28;20044;-67
2022/08/15 14:34:50;;;;;;;5.10;3.35;;;;;;;;;;5019884;28;20037;-67
2022/08/15 14:37:20;;;;;;;5.03;3.35;;;;;;;;;;5025195;28;20497;-67
2022/08/15 14:39:47;;;;;;;5.65;3.55;;;;;;;;;;5022153;28;20037;-67
2022/08/15 14:42:14;;;;;;;6.07;3.60;;;;;;;;;;5017030;28;20574;-67
2022/08/15 14:44:42;;;;;;;5.07;3.92;;;;;;;;;;5019927;28;20132;-67
2022/08/15 14:47:09;;;;;;;5.63;3.78;;;;;;;;;;5020720;28;20094;-69
2022/08/15 14:49:34;;;;;;;4.75;3.45;;;;;;;;;;5020651;28;20069;-67
2022/08/15 14:51:59;;;;;;;4.97;3.50;;;;;;;;;;5028346;28;20064;-67
2022/08/15 14:54:25;;;;;;;4.95;3.45;;;;;;;;;;5024391;28;20041;-67
2022/08/15 14:56:50;;;;;;;4.45;3.67;;;;;;;;;;5025385;28;20041;-67
2022/08/15 14:59:15;;;;;;;5.55;3.50;;;;;;;;;;5029161;28;20044;-67
2022/08/15 15:01:42;;;;;;;6.45;3.70;;;;;;;;;;5027365;28;20052;-67
2022/08/15 15:04:14;;;;;;;7.95;3.28;;;;;;;;;;5029690;28;20033;-67
2022/08/15 15:06:43;;;;;;;13.77;3.88;;;;;;;;;;5017248;28;20561;-67
2022/08/15 15:09:09;;;;;;;7.10;3.30;;;;;;;;;;5009851;28;20041;-67
2022/08/15 15:11:35;;;;;;;4.32;3.28;;;;;;;;;;5018906;28;20037;-67
2022/08/15 15:14:00;;;;;;;4.20;3.10;;;;;;;;;;5029605;28;20040;-67
2022/08/15 15:16:29;;;;;;;4.63;3.50;;;;;;;;;;5029281;28;20029;-67